Time;durP1;ratioP1;P1;durP2;ratioP2;P2;SDS_P1;SDS_P2;PMS_P1;PMS_P2;Temp;Humidity;BMP_temperature;BMP_pressure;BME280_temperature;BME280_humidity;BME280_pressure;Samples;Min_cycle;Max_cycle;Signal;HPM_P1;HPM_P2
2022/07/19 00:01:39;;;;;;;6.63;1.98;;;20.30;74.80;;;;;;4989314;28;20026;-60
2022/07/19 00:04:05;;;;;;;3.47;1.50;;;20.30;74.60;;;;;;4986227;28;20096;-60
2022/07/19 00:06:31;;;;;;;4.50;1.55;;;20.30;75.00;;;;;;4985527;28;20047;-55
2022/07/19 00:08:57;;;;;;;5.43;2.22;;;20.30;75.00;;;;;;4989167;28;20037;-60
2022/07/19 00:11:22;;;;;;;5.97;2.10;;;20.10;75.40;;;;;;4988818;28;20878;-59
2022/07/19 00:13:48;;;;;;;5.00;1.63;;;20.10;75.60;;;;;;4985935;28;20034;-59
2022/07/19 00:16:14;;;;;;;3.85;1.70;;;20.00;75.50;;;;;;4985382;28;20468;-58
2022/07/19 00:18:40;;;;;;;5.40;2.05;;;20.00;75.70;;;;;;4989101;28;20027;-59
2022/07/19 00:21:06;;;;;;;4.78;1.83;;;20.00;75.80;;;;;;4985574;28;20040;-58
2022/07/19 00:23:31;;;;;;;8.35;2.33;;;20.00;75.90;;;;;;4985316;28;20121;-58
2022/07/19 00:25:57;;;;;;;8.65;1.92;;;20.00;75.90;;;;;;4987205;28;20475;-58
2022/07/19 00:28:22;;;;;;;2.83;1.60;;;19.90;75.90;;;;;;4984886;28;20026;-59
2022/07/19 00:30:48;;;;;;;4.47;1.65;;;19.80;76.70;;;;;;4990458;28;20441;-59
2022/07/19 00:33:14;;;;;;;5.72;2.13;;;19.80;76.70;;;;;;4974019;28;20114;-59
2022/07/19 00:35:40;;;;;;;5.07;2.10;;;19.70;76.80;;;;;;4975121;28;20111;-59
2022/07/19 00:38:07;;;;;;;8.43;1.88;;;19.80;77.20;;;;;;4983729;28;20377;-57
2022/07/19 00:40:34;;;;;;;3.45;2.00;;;19.70;77.20;;;;;;4983385;28;20030;-59
2022/07/19 00:43:00;;;;;;;3.13;1.73;;;19.60;77.30;;;;;;4984133;28;20496;-59
2022/07/19 00:45:25;;;;;;;5.82;1.50;;;19.60;77.20;;;;;;4978125;28;20042;-59
2022/07/19 00:47:51;;;;;;;3.05;1.88;;;19.60;77.20;;;;;;4982811;28;20037;-61
2022/07/19 00:50:18;;;;;;;6.45;1.80;;;19.60;77.70;;;;;;4980686;28;20380;-60
2022/07/19 00:52:48;;;;;;;5.97;2.00;;;19.50;77.60;;;;;;4989952;28;20507;-58
2022/07/19 00:55:17;;;;;;;4.72;2.00;;;19.50;77.80;;;;;;4982585;28;20073;-59
2022/07/19 00:57:43;;;;;;;4.28;1.48;;;19.40;78.50;;;;;;4985899;28;20050;-57
2022/07/19 01:00:09;;;;;;;5.07;1.80;;;19.40;78.50;;;;;;4988063;28;20463;-58
2022/07/19 01:02:37;;;;;;;6.45;2.63;;;19.30;78.80;;;;;;4987246;28;20488;-58
2022/07/19 01:05:03;;;;;;;9.75;1.60;;;19.30;78.90;;;;;;4987931;28;20388;-59
2022/07/19 01:07:29;;;;;;;5.85;1.88;;;19.30;78.90;;;;;;4978845;28;20065;-58
2022/07/19 01:09:54;;;;;;;5.00;1.58;;;19.20;79.10;;;;;;4987885;28;20586;-60
2022/07/19 01:12:22;;;;;;;4.78;1.75;;;19.20;79.40;;;;;;4988660;28;20101;-60
2022/07/19 01:14:48;;;;;;;3.50;1.83;;;19.20;79.40;;;;;;4986008;28;20034;-55
2022/07/19 01:17:14;;;;;;;3.75;1.85;;;19.20;79.70;;;;;;4977952;28;20592;-58
2022/07/19 01:19:42;;;;;;;6.78;1.67;;;19.10;80.00;;;;;;4984751;28;20030;-60
2022/07/19 01:22:08;;;;;;;4.57;1.83;;;19.00;80.20;;;;;;4987068;28;20027;-57
2022/07/19 01:24:33;;;;;;;2.97;2.08;;;19.00;80.80;;;;;;4988609;28;20061;-55
2022/07/19 01:26:59;;;;;;;4.22;1.73;;;19.00;81.00;;;;;;4985595;28;20031;-61
2022/07/19 01:29:24;;;;;;;6.20;1.80;;;18.90;81.50;;;;;;4988162;28;20507;-53
2022/07/19 01:31:50;;;;;;;10.73;2.55;;;18.90;81.90;;;;;;4982986;28;20058;-58
2022/07/19 01:34:16;;;;;;;4.75;1.75;;;18.90;82.20;;;;;;4983224;28;20033;-59
2022/07/19 01:36:41;;;;;;;9.30;1.75;;;18.80;82.50;;;;;;4979314;28;20034;-61
2022/07/19 01:39:07;;;;;;;8.60;2.05;;;18.80;83.10;;;;;;4977855;28;20034;-58
2022/07/19 01:41:33;;;;;;;6.55;2.00;;;18.70;83.80;;;;;;4988531;28;20030;-57
2022/07/19 01:43:58;;;;;;;4.45;1.70;;;18.70;83.70;;;;;;4988971;28;20076;-60
2022/07/19 01:46:24;;;;;;;7.88;1.70;;;18.60;84.20;;;;;;4983682;28;20062;-58
2022/07/19 01:48:49;;;;;;;4.78;2.35;;;18.60;84.60;;;;;;4984382;28;20034;-59
2022/07/19 01:51:15;;;;;;;7.07;1.90;;;18.60;84.50;;;;;;4984587;28;20041;-58
2022/07/19 01:53:40;;;;;;;5.45;1.73;;;18.50;85.00;;;;;;4987028;28;20501;-58
2022/07/19 01:56:06;;;;;;;4.38;1.85;;;18.40;85.40;;;;;;4986173;28;20046;-57
2022/07/19 01:58:32;;;;;;;5.25;2.25;;;18.50;85.80;;;;;;4983243;28;20027;-57
2022/07/19 02:00:58;;;;;;;4.50;1.75;;;18.50;86.00;;;;;;4988541;28;20411;-59
2022/07/19 02:03:24;;;;;;;4.22;2.40;;;18.40;86.70;;;;;;4992815;28;20049;-57
2022/07/19 02:05:50;;;;;;;5.28;1.77;;;18.40;86.70;;;;;;4986218;28;20438;-59
2022/07/19 02:08:16;;;;;;;3.95;2.20;;;18.40;87.00;;;;;;4982529;28;20045;-58
2022/07/19 02:10:41;;;;;;;8.88;2.17;;;18.40;87.00;;;;;;4979278;28;20041;-58
2022/07/19 02:13:07;;;;;;;9.18;1.92;;;18.40;87.20;;;;;;4990188;28;20099;-59
2022/07/19 02:18:18;;;;;;;3.53;2.00;;;18.40;86.70;;;;;;4986521;28;20050;-58
2022/07/19 02:20:44;;;;;;;4.82;1.58;;;18.30;87.20;;;;;;4988697;28;20018;-55
2022/07/19 02:23:09;;;;;;;7.78;1.77;;;18.30;87.20;;;;;;4988277;28;20476;-57
2022/07/19 02:25:35;;;;;;;3.72;1.92;;;18.30;87.30;;;;;;4970368;28;20046;-54
2022/07/19 02:28:00;;;;;;;3.80;2.22;;;18.30;87.30;;;;;;4985941;28;20521;-59
2022/07/19 02:30:26;;;;;;;3.97;2.38;;;18.30;87.90;;;;;;4988484;28;20031;-56
2022/07/19 02:32:52;;;;;;;9.93;1.90;;;18.30;88.00;;;;;;4985178;28;20030;-55
2022/07/19 02:35:18;;;;;;;5.15;2.10;;;18.30;88.20;;;;;;4983926;28;20568;-57
2022/07/19 02:37:44;;;;;;;7.10;1.80;;;18.20;88.10;;;;;;4988989;28;20035;-58
2022/07/19 02:40:10;;;;;;;4.82;1.60;;;18.20;88.60;;;;;;4987494;28;20049;-57
2022/07/19 02:42:36;;;;;;;11.10;1.80;;;18.10;88.80;;;;;;4983311;28;20511;-56
2022/07/19 02:45:03;;;;;;;3.65;1.88;;;18.10;88.80;;;;;;4973653;28;20031;-58
2022/07/19 02:47:29;;;;;;;2.92;1.63;;;18.10;88.70;;;;;;4987336;28;20027;-58
2022/07/19 02:49:55;;;;;;;5.88;2.00;;;18.20;88.60;;;;;;4990207;28;20097;-57
2022/07/19 02:52:21;;;;;;;2.53;1.90;;;18.20;88.60;;;;;;4992218;28;20121;-58
2022/07/19 02:54:46;;;;;;;7.65;1.90;;;18.20;88.30;;;;;;4992460;28;20022;-58
2022/07/19 02:57:12;;;;;;;3.55;2.00;;;18.20;88.40;;;;;;4992341;28;20392;-57
2022/07/19 02:59:38;;;;;;;5.90;1.73;;;18.10;88.00;;;;;;4975153;28;20057;-57
2022/07/19 03:02:03;;;;;;;3.63;1.75;;;18.10;87.70;;;;;;4984175;28;20035;-58
2022/07/19 03:04:29;;;;;;;7.53;2.10;;;18.10;87.40;;;;;;5001847;28;20511;-59
2022/07/19 03:06:55;;;;;;;5.28;2.08;;;18.10;87.00;;;;;;4997924;28;20046;-56
2022/07/19 03:09:20;;;;;;;3.72;1.98;;;18.20;87.60;;;;;;4990794;28;20022;-57
2022/07/19 03:11:47;;;;;;;7.32;1.70;;;18.10;88.00;;;;;;4986610;28;20022;-56
2022/07/19 03:14:13;;;;;;;3.92;1.45;;;18.10;88.10;;;;;;4989320;28;20027;-58
2022/07/19 03:16:38;;;;;;;2.63;1.65;;;18.00;89.10;;;;;;4990307;28;20064;-56
2022/07/19 03:19:04;;;;;;;8.05;2.00;;;18.00;89.40;;;;;;4991789;28;20117;-56
2022/07/19 03:21:29;;;;;;;3.47;1.98;;;18.00;89.20;;;;;;4980828;28;20030;-57
2022/07/19 03:23:55;;;;;;;3.25;1.70;;;18.10;89.20;;;;;;4982686;28;20434;-58
2022/07/19 03:26:21;;;;;;;8.48;2.72;;;18.00;89.00;;;;;;4990616;28;20045;-58
2022/07/19 03:28:46;;;;;;;5.25;1.73;;;18.00;89.70;;;;;;4992362;28;20030;-58
2022/07/19 03:31:12;;;;;;;4.13;2.22;;;18.00;88.60;;;;;;4990520;28;20062;-58
2022/07/19 03:33:37;;;;;;;5.88;1.58;;;18.00;88.30;;;;;;4991121;28;20022;-54
2022/07/19 03:36:04;;;;;;;5.97;1.65;;;18.20;86.10;;;;;;4984158;28;20035;-56
2022/07/19 03:38:29;;;;;;;4.63;2.03;;;18.20;85.60;;;;;;4991293;28;20500;-59
2022/07/19 03:40:55;;;;;;;3.92;1.67;;;18.30;84.60;;;;;;4990714;28;20036;-57
2022/07/19 03:43:22;;;;;;;6.07;1.70;;;18.50;84.10;;;;;;4988974;28;20034;-57
2022/07/19 03:45:48;;;;;;;11.88;1.88;;;18.50;82.80;;;;;;4981589;28;20082;-58
2022/07/19 03:48:15;;;;;;;5.25;1.80;;;18.60;82.60;;;;;;4983218;28;20457;-58
2022/07/19 03:50:41;;;;;;;3.65;1.70;;;18.60;82.10;;;;;;4984868;28;20498;-59
2022/07/19 03:53:07;;;;;;;8.07;2.13;;;18.70;81.80;;;;;;4990468;28;20027;-59
2022/07/19 03:55:33;;;;;;;4.28;1.75;;;18.80;80.00;;;;;;4990927;28;20426;-58
2022/07/19 03:57:58;;;;;;;5.90;1.85;;;18.90;80.80;;;;;;4991437;28;20037;-55
2022/07/19 04:00:24;;;;;;;5.38;1.67;;;18.90;81.30;;;;;;4989986;28;20121;-58
2022/07/19 04:02:50;;;;;;;3.33;1.65;;;18.90;82.00;;;;;;4986194;28;20037;-58
2022/07/19 04:05:15;;;;;;;3.00;1.42;;;18.90;82.10;;;;;;4989062;28;20093;-55
2022/07/19 04:07:41;;;;;;;4.40;1.63;;;18.90;81.90;;;;;;4990631;28;20037;-57
2022/07/19 04:10:07;;;;;;;5.80;1.75;;;18.80;82.00;;;;;;4990311;28;20030;-59
2022/07/19 04:12:33;;;;;;;4.45;1.88;;;18.90;81.00;;;;;;4984241;28;20448;-57
2022/07/19 04:15:00;;;;;;;6.65;2.53;;;18.90;81.10;;;;;;4989692;28;20026;-56
2022/07/19 04:17:26;;;;;;;6.22;2.58;;;19.00;80.40;;;;;;4986430;28;20038;-57
2022/07/19 04:19:52;;;;;;;2.58;1.65;;;19.10;80.20;;;;;;4989866;28;20030;-56
2022/07/19 04:22:17;;;;;;;5.15;1.80;;;19.10;79.90;;;;;;4985445;28;20026;-58
2022/07/19 04:24:43;;;;;;;3.55;1.50;;;19.20;79.80;;;;;;4990183;28;20030;-57
2022/07/19 04:27:09;;;;;;;7.88;1.98;;;19.20;79.60;;;;;;4982895;28;20042;-57
2022/07/19 04:29:35;;;;;;;4.30;1.60;;;19.20;81.70;;;;;;4983858;28;20023;-58
2022/07/19 04:32:00;;;;;;;3.17;1.70;;;19.30;81.90;;;;;;4983904;28;20030;-55
2022/07/19 04:34:26;;;;;;;5.22;1.85;;;19.40;81.00;;;;;;4981604;28;20038;-58
2022/07/19 04:36:51;;;;;;;9.23;2.20;;;19.40;78.50;;;;;;4984443;28;20110;-56
2022/07/19 04:39:17;;;;;;;5.72;2.10;;;19.60;78.90;;;;;;4986665;28;20393;-57
2022/07/19 04:41:42;;;;;;;3.25;1.70;;;19.90;79.20;;;;;;4989930;28;20030;-58
2022/07/19 04:44:08;;;;;;;3.92;2.03;;;20.70;79.10;;;;;;4990482;28;20566;-59
2022/07/19 04:46:34;;;;;;;5.55;2.10;;;21.60;73.60;;;;;;4978034;28;20034;-57
2022/07/19 04:48:59;;;;;;;7.30;2.15;;;22.60;71.30;;;;;;4991104;28;20019;-59
2022/07/19 04:51:25;;;;;;;4.60;1.50;;;23.40;68.30;;;;;;4988498;28;20050;-59
2022/07/19 04:53:51;;;;;;;6.07;1.50;;;24.00;67.40;;;;;;4986738;28;20480;-58
2022/07/19 04:56:16;;;;;;;4.13;2.00;;;24.80;65.60;;;;;;4981395;28;20034;-59
2022/07/19 04:58:42;;;;;;;6.35;2.00;;;25.80;62.90;;;;;;4990358;28;20031;-56
2022/07/19 05:01:07;;;;;;;6.05;1.75;;;26.60;61.20;;;;;;4989484;28;20164;-58
2022/07/19 05:03:33;;;;;;;5.72;1.88;;;27.30;59.40;;;;;;4980166;28;20617;-57
2022/07/19 05:05:59;;;;;;;5.60;1.63;;;27.90;57.90;;;;;;4977191;28;20416;-60
2022/07/19 05:08:24;;;;;;;3.92;1.58;;;28.30;57.30;;;;;;4987433;28;20030;-57
2022/07/19 05:10:50;;;;;;;4.05;2.20;;;28.40;56.30;;;;;;4984484;28;20026;-56
2022/07/19 05:13:15;;;;;;;5.25;1.50;;;28.30;56.80;;;;;;4988282;28;20026;-56
2022/07/19 05:15:41;;;;;;;3.65;1.67;;;28.50;56.90;;;;;;4977991;28;20027;-59
2022/07/19 05:18:07;;;;;;;5.57;1.90;;;28.20;56.40;;;;;;4986150;28;20389;-57
2022/07/19 05:20:32;;;;;;;9.40;1.52;;;28.80;55.90;;;;;;4987563;28;20052;-56
2022/07/19 05:22:58;;;;;;;4.20;1.90;;;29.30;55.60;;;;;;4990633;28;20550;-59
2022/07/19 05:25:24;;;;;;;5.32;1.85;;;30.10;53.80;;;;;;4992788;28;20039;-59
2022/07/19 05:27:49;;;;;;;6.90;2.00;;;29.90;53.40;;;;;;4988698;28;20027;-59
2022/07/19 05:30:15;;;;;;;5.90;1.40;;;29.80;53.40;;;;;;4991701;28;20088;-60
2022/07/19 05:32:41;;;;;;;7.45;1.95;;;30.30;53.90;;;;;;4993547;28;20122;-57
2022/07/19 05:35:07;;;;;;;5.97;1.85;;;30.30;54.60;;;;;;4986756;28;20031;-59
2022/07/19 05:37:32;;;;;;;5.40;1.92;;;31.40;52.20;;;;;;4969805;28;20050;-57
2022/07/19 05:39:58;;;;;;;4.55;2.00;;;31.50;51.30;;;;;;4991656;28;20556;-57
2022/07/19 05:42:24;;;;;;;2.97;1.73;;;31.20;52.30;;;;;;4991583;28;20057;-56
2022/07/19 05:44:49;;;;;;;3.58;1.70;;;31.80;50.40;;;;;;4984979;28;20026;-55
2022/07/19 05:47:15;;;;;;;5.18;1.83;;;32.00;50.00;;;;;;4991964;28;20042;-57
2022/07/19 05:49:41;;;;;;;11.48;2.08;;;32.10;49.40;;;;;;4991517;28;20034;-57
2022/07/19 05:52:06;;;;;;;4.85;1.40;;;32.40;49.40;;;;;;4982501;28;20435;-57
2022/07/19 05:54:32;;;;;;;4.50;1.55;;;33.00;49.80;;;;;;4988446;28;20038;-57
2022/07/19 05:56:58;;;;;;;5.28;2.20;;;33.00;49.60;;;;;;4987877;28;20416;-58
2022/07/19 05:59:23;;;;;;;5.63;1.90;;;34.00;47.80;;;;;;4992042;28;20041;-58
2022/07/19 06:01:49;;;;;;;7.45;2.60;;;33.60;49.20;;;;;;4989817;28;20081;-57
2022/07/19 06:04:15;;;;;;;3.85;1.52;;;33.90;48.00;;;;;;4986763;28;20117;-59
2022/07/19 06:06:41;;;;;;;8.93;2.40;;;33.90;47.70;;;;;;4990838;28;20033;-58
2022/07/19 06:09:11;;;;;;;8.52;1.85;;;33.90;48.60;;;;;;4992335;28;20030;-58
2022/07/19 06:11:38;;;;;;;4.13;1.92;;;34.30;47.60;;;;;;4986514;28;20026;-57
2022/07/19 06:14:06;;;;;;;5.47;2.03;;;34.40;48.10;;;;;;4992531;28;20037;-59
2022/07/19 06:16:32;;;;;;;5.50;1.80;;;34.60;47.80;;;;;;4990482;28;20046;-59
2022/07/19 06:18:57;;;;;;;6.65;1.88;;;35.20;47.20;;;;;;4992045;28;20069;-59
2022/07/19 06:21:23;;;;;;;9.23;1.90;;;35.10;46.70;;;;;;4989543;28;20030;-59
2022/07/19 06:23:49;;;;;;;7.38;2.00;;;35.20;47.50;;;;;;4988330;28;20029;-58
2022/07/19 06:26:15;;;;;;;4.88;1.92;;;35.30;46.50;;;;;;4992997;28;20446;-58
2022/07/19 06:28:41;;;;;;;6.93;2.08;;;35.40;45.20;;;;;;4993616;28;20103;-58
2022/07/19 06:31:07;;;;;;;4.85;2.55;;;35.50;45.70;;;;;;4986055;28;20058;-58
2022/07/19 06:33:33;;;;;;;3.20;1.85;;;35.70;45.30;;;;;;4983648;28;20158;-59
2022/07/19 06:35:59;;;;;;;5.40;2.03;;;36.50;45.40;;;;;;4992464;28;20553;-58
2022/07/19 06:38:24;;;;;;;5.13;1.98;;;36.40;44.60;;;;;;4983603;28;20034;-59
2022/07/19 06:40:50;;;;;;;7.25;2.28;;;36.50;44.60;;;;;;4988684;28;20085;-59
2022/07/19 06:43:15;;;;;;;6.47;1.83;;;37.30;44.10;;;;;;4992210;28;20038;-60
2022/07/19 06:45:41;;;;;;;7.50;2.22;;;37.30;43.80;;;;;;4992314;28;20030;-60
2022/07/19 06:48:07;;;;;;;7.57;2.13;;;37.00;44.30;;;;;;4992389;28;20026;-59
2022/07/19 06:50:33;;;;;;;6.90;1.98;;;37.00;44.20;;;;;;4988519;28;20030;-59
2022/07/19 06:52:59;;;;;;;12.10;2.50;;;37.30;42.80;;;;;;4990816;28;20034;-58
2022/07/19 06:55:25;;;;;;;4.13;2.17;;;37.50;43.60;;;;;;4990586;28;20018;-59
2022/07/19 06:57:51;;;;;;;7.13;1.85;;;37.50;43.50;;;;;;4992431;28;20041;-59
2022/07/19 07:00:17;;;;;;;4.40;1.95;;;37.90;44.60;;;;;;4986279;28;20034;-59
2022/07/19 07:02:43;;;;;;;7.15;2.25;;;38.50;43.10;;;;;;4986092;28;20033;-58
2022/07/19 07:05:10;;;;;;;11.32;2.03;;;38.10;41.60;;;;;;4977687;28;20057;-57
2022/07/19 07:07:37;;;;;;;9.65;2.28;;;38.80;42.20;;;;;;4985480;28;20070;-59
2022/07/19 07:10:06;;;;;;;4.65;2.00;;;39.00;42.90;;;;;;4989182;28;20448;-59
2022/07/19 07:12:32;;;;;;;4.25;1.55;;;39.40;43.30;;;;;;4984104;28;20038;-56
2022/07/19 07:14:57;;;;;;;4.68;2.60;;;39.10;41.70;;;;;;4991445;28;20030;-56
2022/07/19 07:17:23;;;;;;;8.10;2.33;;;39.80;42.20;;;;;;4992937;28;20039;-56
2022/07/19 07:19:49;;;;;;;10.23;1.80;;;39.20;40.70;;;;;;4985855;28;20097;-57
2022/07/19 07:22:15;;;;;;;2.42;1.80;;;38.90;41.60;;;;;;4984079;28;20039;-57
2022/07/19 07:24:41;;;;;;;11.25;1.67;;;40.10;42.10;;;;;;4989619;28;20026;-58
2022/07/19 07:27:06;;;;;;;11.50;3.15;;;40.50;42.30;;;;;;4991485;28;20030;-58
2022/07/19 07:29:32;;;;;;;4.10;2.20;;;41.00;40.40;;;;;;4982442;28;20074;-57
2022/07/19 07:31:58;;;;;;;6.30;1.90;;;40.90;41.40;;;;;;4986193;28;20057;-57
2022/07/19 07:34:24;;;;;;;6.97;2.30;;;42.00;40.50;;;;;;4982242;28;20393;-56
2022/07/19 07:36:49;;;;;;;6.70;1.90;;;41.40;40.30;;;;;;4994194;28;20034;-58
2022/07/19 07:39:15;;;;;;;3.10;1.90;;;40.30;40.40;;;;;;5001183;28;20033;-59
2022/07/19 07:41:41;;;;;;;7.07;2.35;;;41.00;41.10;;;;;;5004426;28;20527;-57
2022/07/19 07:44:07;;;;;;;5.10;2.05;;;40.40;41.40;;;;;;4993259;28;20026;-59
2022/07/19 07:46:33;;;;;;;4.65;1.85;;;41.10;42.00;;;;;;4995894;28;20613;-56
2022/07/19 07:48:58;;;;;;;7.38;2.38;;;41.40;40.40;;;;;;4981658;28;20031;-59
2022/07/19 07:51:25;;;;;;;7.25;1.80;;;41.80;40.30;;;;;;4986096;28;20019;-59
2022/07/19 07:53:51;;;;;;;6.70;1.77;;;41.60;40.90;;;;;;4985116;28;20110;-59
2022/07/19 07:56:16;;;;;;;2.90;1.92;;;41.60;40.10;;;;;;4981619;28;20109;-60
2022/07/19 07:58:42;;;;;;;8.43;2.08;;;42.00;40.90;;;;;;4978200;28;20026;-59
2022/07/19 08:01:08;;;;;;;3.90;1.88;;;41.90;40.70;;;;;;4980161;28;20039;-58
2022/07/19 08:03:33;;;;;;;7.75;2.30;;;41.60;40.00;;;;;;4982604;28;20504;-59
2022/07/19 08:05:59;;;;;;;6.15;1.90;;;41.70;39.90;;;;;;4991097;28;20042;-58
2022/07/19 08:08:26;;;;;;;7.28;2.33;;;41.80;39.10;;;;;;4988732;28;20126;-59
2022/07/19 08:10:55;;;;;;;2.88;1.58;;;42.20;39.50;;;;;;4991881;28;20092;-57
2022/07/19 08:13:22;;;;;;;4.03;1.92;;;42.30;39.30;;;;;;4986878;28;20475;-60
2022/07/19 08:15:48;;;;;;;5.65;1.80;;;42.60;39.60;;;;;;4985384;28;20034;-59
2022/07/19 08:18:13;;;;;;;5.00;2.17;;;42.40;39.50;;;;;;4988200;28;20042;-59
2022/07/19 08:20:39;;;;;;;2.97;1.70;;;42.50;39.30;;;;;;5000296;28;20030;-60
2022/07/19 08:23:04;;;;;;;3.92;2.03;;;42.30;38.90;;;;;;4986100;28;20027;-59
2022/07/19 08:25:32;;;;;;;6.68;1.92;;;42.00;39.20;;;;;;4984035;28;20038;-59
2022/07/19 08:27:57;;;;;;;3.15;1.90;;;41.80;40.20;;;;;;4989083;28;20396;-59
2022/07/19 08:30:23;;;;;;;4.05;2.15;;;42.40;41.30;;;;;;4981967;28;20022;-57
2022/07/19 08:32:49;;;;;;;30.90;3.45;;;42.20;39.70;;;;;;4988684;28;20029;-57
2022/07/19 08:35:15;;;;;;;6.15;1.88;;;42.70;39.30;;;;;;4990563;28;20034;-59
2022/07/19 08:37:40;;;;;;;4.95;2.00;;;43.40;38.20;;;;;;4990315;28;20492;-60
2022/07/19 08:40:07;;;;;;;3.70;1.70;;;42.70;39.60;;;;;;5005651;23;20189;-63
2022/07/19 08:42:32;;;;;;;6.05;1.90;;;43.00;39.30;;;;;;4980992;28;20180;-60
2022/07/19 08:45:02;;;;;;;5.18;1.85;;;42.60;38.20;;;;;;4984278;28;20627;-60
2022/07/19 08:47:29;;;;;;;4.70;2.00;;;42.70;38.50;;;;;;4981684;28;20030;-59
2022/07/19 08:49:57;;;;;;;2.83;1.90;;;42.40;39.60;;;;;;4999787;28;20152;-61
2022/07/19 08:52:24;;;;;;;5.82;2.17;;;43.50;38.40;;;;;;5006294;28;20021;-61
2022/07/19 08:54:49;;;;;;;7.40;1.73;;;43.30;37.20;;;;;;5007710;28;20114;-61
2022/07/19 08:59:59;;;;;;;4.75;1.92;;;43.60;37.10;;;;;;5007507;28;20505;-61
2022/07/19 09:02:25;;;;;;;5.68;2.30;;;43.70;37.30;;;;;;5008923;28;20109;-60
2022/07/19 09:05:10;;;;;;;4.90;2.03;;;42.70;36.50;;;;;;5004544;28;20035;-61
2022/07/19 09:07:39;;;;;;;2.63;1.65;;;43.00;37.60;;;;;;5002870;28;20022;-61
2022/07/19 09:10:20;;;;;;;4.13;1.92;;;42.90;37.60;;;;;;5002615;28;21517;-59
2022/07/19 09:13:12;;;;;;;5.18;1.60;;;42.80;37.20;;;;;;5010896;28;20663;-61
2022/07/19 09:15:42;;;;;;;4.65;1.80;;;42.70;37.30;;;;;;5003061;28;20037;-58
2022/07/19 09:18:23;;;;;;;3.70;1.98;;;42.90;36.70;;;;;;5008667;28;20056;-60
2022/07/19 09:20:51;;;;;;;4.72;1.58;;;43.40;37.00;;;;;;5002904;28;20029;-61
2022/07/19 09:23:16;;;;;;;2.53;1.65;;;43.30;37.40;;;;;;5007783;28;20030;-62
2022/07/19 09:25:48;;;;;;;5.97;1.98;;;43.30;36.50;;;;;;5009841;28;20033;-64
2022/07/19 09:28:15;;;;;;;4.65;2.13;;;43.60;36.40;;;;;;5009128;28;20161;-60
2022/07/19 09:30:43;;;;;;;5.28;2.45;;;43.10;37.10;;;;;;5009024;28;20141;-61
2022/07/19 09:33:19;;;;;;;7.90;2.22;;;42.70;36.90;;;;;;5008217;28;20045;-60
2022/07/19 09:35:51;;;;;;;8.20;2.33;;;42.50;36.80;;;;;;5005108;28;20030;-60
2022/07/19 09:38:20;;;;;;;3.75;2.20;;;42.80;38.00;;;;;;5008575;28;20091;-61
2022/07/19 09:40:47;;;;;;;3.53;1.60;;;42.70;37.30;;;;;;5009353;28;20117;-60
2022/07/19 09:43:13;;;;;;;5.95;2.10;;;43.20;36.70;;;;;;5007690;28;20061;-62
2022/07/19 09:45:38;;;;;;;6.43;1.88;;;43.30;36.10;;;;;;5009430;28;20036;-61
2022/07/19 09:48:04;;;;;;;2.10;1.88;;;43.30;36.80;;;;;;5009194;28;20563;-60
2022/07/19 09:50:30;;;;;;;4.72;1.52;;;43.20;35.90;;;;;;5008095;28;20022;-61
2022/07/19 09:53:01;;;;;;;5.60;2.38;;;43.30;36.10;;;;;;5004356;28;20589;-59
2022/07/19 09:55:27;;;;;;;3.92;1.83;;;43.40;36.10;;;;;;5008401;28;20038;-58
2022/07/19 09:57:55;;;;;;;6.45;2.40;;;43.00;35.40;;;;;;5006764;28;20477;-61
2022/07/19 10:00:22;;;;;;;6.00;2.40;;;42.90;36.50;;;;;;4994625;28;20060;-60
2022/07/19 10:02:54;;;;;;;3.80;1.67;;;42.90;38.50;;;;;;5004104;28;20026;-61
2022/07/19 10:05:21;;;;;;;14.70;2.03;;;42.90;35.90;;;;;;5009939;28;20062;-59
2022/07/19 10:07:47;;;;;;;5.43;2.30;;;42.60;36.30;;;;;;5008170;28;20036;-60
2022/07/19 10:10:15;;;;;;;9.50;2.10;;;42.70;36.20;;;;;;5007580;28;20042;-59
2022/07/19 10:12:44;;;;;;;5.65;2.28;;;42.80;37.10;;;;;;5003964;28;20033;-59
2022/07/19 10:15:13;;;;;;;6.50;1.80;;;42.10;37.40;;;;;;5012015;28;20499;-60
2022/07/19 10:17:47;;;;;;;6.35;2.13;;;41.60;37.20;;;;;;5009465;28;20025;-61
2022/07/19 10:20:19;;;;;;;7.95;1.85;;;41.60;38.10;;;;;;5011854;28;20018;-60
2022/07/19 10:22:45;;;;;;;;;;;41.00;36.80;;;;;;4999723;28;20034;-59
2022/07/19 10:25:14;;;;;;;8.50;2.15;;;40.60;37.90;;;;;;5010416;28;20334;-58
2022/07/19 10:27:44;;;;;;;5.35;1.80;;;40.20;38.40;;;;;;5011526;28;20605;-59
2022/07/19 10:30:10;;;;;;;3.72;1.63;;;40.20;39.70;;;;;;5011986;28;20024;-57
2022/07/19 10:32:37;;;;;;;6.95;2.05;;;40.10;38.00;;;;;;5003314;28;20026;-60
2022/07/19 10:35:18;;;;;;;3.58;2.00;;;40.00;37.50;;;;;;5012837;28;20053;-59
2022/07/19 10:37:46;;;;;;;4.95;1.67;;;39.70;36.70;;;;;;5004601;28;20058;-60
2022/07/19 10:40:12;;;;;;;6.75;1.70;;;39.40;38.10;;;;;;5009585;28;20037;-57
2022/07/19 10:43:07;;;;;;;6.68;1.90;;;39.00;37.30;;;;;;5014600;28;20118;-59
2022/07/19 10:45:33;;;;;;;2.78;1.58;;;39.00;39.00;;;;;;5009762;28;20054;-59
2022/07/19 10:48:03;;;;;;;5.30;1.92;;;39.00;38.70;;;;;;5011611;28;20100;-59
2022/07/19 10:50:56;;;;;;;3.03;1.50;;;39.00;37.70;;;;;;5011026;28;20045;-58
2022/07/19 10:53:54;;;;;;;4.13;1.90;;;38.70;36.30;;;;;;5011451;28;20036;-58
2022/07/19 10:56:41;;;;;;;5.75;1.75;;;38.40;36.60;;;;;;4979250;28;20033;-58
2022/07/19 10:59:11;;;;;;;4.53;1.60;;;38.20;36.20;;;;;;5012509;28;20031;-57
2022/07/19 11:01:39;;;;;;;5.47;1.63;;;38.00;37.00;;;;;;5006338;28;20076;-58
2022/07/19 11:04:44;;;;;;;3.55;1.45;;;37.60;35.90;;;;;;5012933;28;20123;-59
2022/07/19 11:07:09;;;;;;;1.83;1.50;;;37.30;36.80;;;;;;5009345;28;20396;-59
2022/07/19 11:09:56;;;;;;;3.60;1.63;;;37.10;36.90;;;;;;5012067;28;20029;-60
2022/07/19 11:12:44;;;;;;;8.00;1.70;;;37.10;37.70;;;;;;5014419;28;20022;-58
2022/07/19 11:15:11;;;;;;;3.97;1.63;;;37.30;39.00;;;;;;5014847;28;20029;-60
2022/07/19 11:17:37;;;;;;;5.82;1.70;;;37.50;38.80;;;;;;5009920;28;20101;-54
2022/07/19 11:20:11;;;;;;;4.70;1.55;;;37.60;37.50;;;;;;5005212;28;20028;-59
2022/07/19 11:22:44;;;;;;;4.10;1.50;;;37.60;37.40;;;;;;5008899;28;20048;-55
2022/07/19 11:25:10;;;;;;;;;;;37.40;36.60;;;;;;5006067;28;20050;-56
2022/07/19 11:27:40;;;;;;;7.93;1.85;;;37.20;37.70;;;;;;5005586;28;19914;-60
2022/07/19 11:30:07;;;;;;;4.78;1.95;;;37.00;37.50;;;;;;5009061;28;20076;-55
2022/07/19 11:32:33;;;;;;;8.20;2.15;;;36.90;37.30;;;;;;5010608;28;20028;-59
2022/07/19 11:35:04;;;;;;;8.02;1.80;;;36.90;37.10;;;;;;5006803;28;20029;-55
2022/07/19 11:37:38;;;;;;;3.35;1.77;;;36.90;37.50;;;;;;5009262;28;20038;-55
2022/07/19 11:40:06;;;;;;;7.68;1.73;;;36.70;37.00;;;;;;5008656;28;20048;-58
2022/07/19 11:42:45;;;;;;;5.25;2.00;;;36.80;37.70;;;;;;5007823;28;20022;-61
2022/07/19 11:45:11;;;;;;;4.32;1.80;;;36.70;37.10;;;;;;5009916;28;20403;-59
2022/07/19 11:47:41;;;;;;;5.25;1.77;;;36.60;38.20;;;;;;5010082;28;20026;-59
2022/07/19 11:50:08;;;;;;;3.28;1.45;;;36.80;39.10;;;;;;5007884;28;20025;-58
2022/07/19 11:52:56;;;;;;;6.25;1.83;;;37.00;38.00;;;;;;5008740;28;20065;-57
2022/07/19 11:55:28;;;;;;;7.47;2.58;;;37.20;37.40;;;;;;5009598;28;20026;-57
2022/07/19 11:57:56;;;;;;;8.93;1.73;;;36.90;36.60;;;;;;5011844;28;20049;-58
2022/07/19 12:00:21;;;;;;;3.65;1.83;;;36.90;37.50;;;;;;5008437;28;20034;-59
2022/07/19 12:02:58;;;;;;;2.25;1.50;;;36.90;38.10;;;;;;5006639;28;20038;-61
2022/07/19 12:05:25;;;;;;;4.50;1.88;;;36.90;37.60;;;;;;5006260;28;20033;-62
2022/07/19 12:07:54;;;;;;;7.60;1.75;;;36.90;38.20;;;;;;5006318;28;20112;-62
2022/07/19 12:10:38;;;;;;;6.85;2.25;;;36.90;36.90;;;;;;5005754;28;20101;-59
2022/07/19 12:13:05;;;;;;;7.65;1.60;;;36.90;37.60;;;;;;5007782;28;20028;-61
2022/07/19 12:15:49;;;;;;;3.80;1.48;;;36.90;38.60;;;;;;5007101;28;20025;-58
2022/07/19 12:18:42;;;;;;;8.57;1.77;;;36.80;38.40;;;;;;5009088;28;20400;-58
2022/07/19 12:21:22;;;;;;;6.03;1.75;;;36.80;37.90;;;;;;5012051;28;20453;-60
2022/07/19 12:24:17;;;;;;;6.20;1.60;;;36.70;38.40;;;;;;5008655;28;20052;-62
2022/07/19 12:26:57;;;;;;;5.75;2.00;;;36.60;38.10;;;;;;5007567;28;20040;-60
2022/07/19 12:29:40;;;;;;;3.67;1.77;;;36.70;37.30;;;;;;5009239;28;20030;-61
2022/07/19 12:32:09;;;;;;;5.88;2.13;;;36.70;37.60;;;;;;5010914;28;20036;-61
2022/07/19 12:35:11;;;;;;;4.72;1.60;;;36.80;38.40;;;;;;5009889;28;20369;-62
2022/07/19 12:37:44;;;;;;;4.85;2.55;;;36.70;37.50;;;;;;5004931;28;20022;-61
2022/07/19 12:40:21;;;;;;;5.43;1.90;;;36.50;38.20;;;;;;5002395;28;20412;-60
2022/07/19 12:42:49;;;;;;;6.65;1.60;;;36.50;36.90;;;;;;5003338;28;20384;-61
2022/07/19 12:45:21;;;;;;;2.38;1.58;;;36.50;37.60;;;;;;5010246;28;20052;-62
2022/07/19 12:47:48;;;;;;;7.75;1.60;;;36.30;37.50;;;;;;5008174;28;20041;-58
2022/07/19 12:50:25;;;;;;;5.88;1.77;;;36.30;37.00;;;;;;5010896;28;20041;-56
2022/07/19 12:52:53;;;;;;;5.07;2.08;;;36.20;37.20;;;;;;5009650;28;20033;-60
2022/07/19 12:55:20;;;;;;;4.93;2.10;;;36.10;37.60;;;;;;5010396;28;20519;-57
2022/07/19 12:57:48;;;;;;;5.68;1.67;;;36.10;37.90;;;;;;5009855;28;20033;-60